Terminal Aerodrome Forecast
Issued by NWS

Home | Current Version | Previous Version | Graphics & Text | Print | Product List | Glossary On
Versions: 1 2 3 4 5 6 7 8 9 10 11 12 13 14 15 16 17 18 19 20 21 22
000
FTUS43 KMPX 251814 CCA
TAFRNH
TAF COR
KRNH 251814Z 2518/2618 13011KT 6SM -SHRA SCT010 BKN040
      TEMPO 2518/2522 3SM TSRA BR BKN020CB
     FM260000 14005KT P6SM BKN100
     FM260800 VRB03KT 5SM BR SCT008
      TEMPO 2608/2612 2SM BR BKN008
     FM261200 22009KT P6SM BKN080=

USA.gov is the U.S. government's official web portal to all federal, state and local government web resources and services.